Time;durP1;ratioP1;P1;durP2;ratioP2;P2;SDS_P1;SDS_P2;PMS_P1;PMS_P2;Temp;Humidity;BMP_temperature;BMP_pressure;BME280_temperature;BME280_humidity;BME280_pressure;Samples;Min_cycle;Max_cycle;Signal;HPM_P1;HPM_P2
2024/04/12 00:01:11;;;;;;;;;;;14.60;99.90;;;;;;5418694;26;19930;-47
2024/04/12 00:03:37;;;;;;;;;;;14.60;99.90;;;;;;5389854;26;19968;-47
2024/04/12 00:06:14;;;;;;;;;;;14.60;99.90;;;;;;5422037;26;19935;-48
2024/04/12 00:08:47;;;;;;;;;;;14.50;99.90;;;;;;5417295;26;20380;-48
2024/04/12 00:11:13;;;;;;;;;;;14.50;99.90;;;;;;5409346;26;19932;-47
2024/04/12 00:13:41;;;;;;;;;;;14.50;99.90;;;;;;5420563;26;20023;-46
2024/04/12 00:16:10;;;;;;;;;;;14.50;99.90;;;;;;5409316;26;20340;-47
2024/04/12 00:18:36;;;;;;;;;;;14.50;99.90;;;;;;5419078;26;19929;-47
2024/04/12 00:21:03;;;;;;;;;;;14.50;99.90;;;;;;5420804;26;19935;-47
2024/04/12 00:23:30;;;;;;;;;;;14.50;99.90;;;;;;5419771;26;19949;-47
2024/04/12 00:25:59;;;;;;;;;;;14.50;99.90;;;;;;5421542;26;19933;-47
2024/04/12 00:28:32;;;;;;;;;;;14.50;99.90;;;;;;5421036;26;19929;-47
2024/04/12 00:31:01;;;;;;;;;;;14.50;99.90;;;;;;5421514;26;19932;-48
2024/04/12 00:33:31;;;;;;;;;;;14.50;99.90;;;;;;5421722;26;19929;-47
2024/04/12 00:36:11;;;;;;;;;;;14.40;99.90;;;;;;5400357;26;20366;-47
2024/04/12 00:38:37;;;;;;;;;;;14.40;99.90;;;;;;5419650;26;20283;-47
2024/04/12 00:41:11;;;;;;;;;;;14.40;99.90;;;;;;5420755;26;19968;-47
2024/04/12 00:43:45;;;;;;;;;;;14.40;99.90;;;;;;5420815;26;19929;-47
2024/04/12 00:46:28;;;;;;;;;;;14.40;99.90;;;;;;5420963;26;19937;-47
2024/04/12 00:48:57;;;;;;;;;;;14.40;99.90;;;;;;5421581;26;19937;-47
2024/04/12 00:51:27;;;;;;;;;;;14.30;99.90;;;;;;5421173;26;19944;-48
2024/04/12 00:53:56;;;;;;;;;;;14.30;99.90;;;;;;5420768;26;19937;-47
2024/04/12 00:56:23;;;;;;;;;;;14.30;99.90;;;;;;5420690;26;19948;-46
2024/04/12 00:58:49;;;;;;;;;;;14.30;99.90;;;;;;5420970;26;20368;-52
2024/04/12 01:01:18;;;;;;;;;;;14.30;99.90;;;;;;5420989;26;19939;-50
2024/04/12 01:03:47;;;;;;;;;;;14.20;99.90;;;;;;5420457;26;19929;-50
2024/04/12 01:06:24;;;;;;;;;;;14.20;99.90;;;;;;5421389;26;20418;-50
2024/04/12 01:08:51;;;;;;;;;;;14.20;99.90;;;;;;5408903;26;19929;-51
2024/04/12 01:11:21;;;;;;;;;;;14.20;99.90;;;;;;5407253;26;19938;-49
2024/04/12 01:13:50;;;;;;;;;;;14.20;99.90;;;;;;5418718;26;19933;-50
2024/04/12 01:16:15;;;;;;;;;;;14.20;99.90;;;;;;5384950;26;19940;-51
2024/04/12 01:18:44;;;;;;;;;;;14.20;99.90;;;;;;5418934;26;19929;-48
2024/04/12 01:21:10;;;;;;;;;;;14.20;99.90;;;;;;5420596;26;20360;-50
2024/04/12 01:23:43;;;;;;;;;;;14.20;99.90;;;;;;5420710;26;19936;-50
2024/04/12 01:26:13;;;;;;;;;;;14.20;99.90;;;;;;5420726;26;19929;-51
2024/04/12 01:28:39;;;;;;;;;;;14.20;99.90;;;;;;5397279;26;19929;-51
2024/04/12 01:31:05;;;;;;;;;;;14.20;99.90;;;;;;5421088;26;19929;-51
2024/04/12 01:33:36;;;;;;;;;;;14.20;99.90;;;;;;5419167;26;20300;-48
2024/04/12 01:36:05;;;;;;;;;;;14.20;99.90;;;;;;5420502;26;19928;-52
2024/04/12 01:38:36;;;;;;;;;;;14.10;99.90;;;;;;5420368;26;19929;-51
2024/04/12 01:41:05;;;;;;;;;;;14.10;99.90;;;;;;5420038;26;19929;-50
2024/04/12 01:43:35;;;;;;;;;;;14.10;99.90;;;;;;5420060;26;19929;-51
2024/04/12 01:46:07;;;;;;;;;;;14.10;99.90;;;;;;5417582;26;19933;-51
2024/04/12 01:48:36;;;;;;;;;;;14.10;99.90;;;;;;5418875;26;19929;-51
2024/04/12 01:51:02;;;;;;;;;;;14.10;99.90;;;;;;5420414;26;20287;-53
2024/04/12 01:53:28;;;;;;;;;;;14.10;99.90;;;;;;5398494;26;20412;-49
2024/04/12 01:55:58;;;;;;;;;;;14.10;99.90;;;;;;5415673;26;19940;-52
2024/04/12 01:58:26;;;;;;;;;;;14.10;99.90;;;;;;5418645;26;19929;-51
2024/04/12 02:00:52;;;;;;;;;;;14.10;99.90;;;;;;5418973;26;19937;-51
2024/04/12 02:03:17;;;;;;;;;;;14.10;99.90;;;;;;5418379;26;19936;-51
2024/04/12 02:05:44;;;;;;;;;;;14.10;99.90;;;;;;5418389;26;20381;-51
2024/04/12 02:08:16;;;;;;;;;;;14.10;99.90;;;;;;5418898;26;19936;-52
2024/04/12 02:10:43;;;;;;;;;;;14.10;99.90;;;;;;5402229;26;19933;-46
2024/04/12 02:13:10;;;;;;;;;;;14.10;99.90;;;;;;5409466;26;19929;-46
2024/04/12 02:15:36;;;;;;;;;;;14.10;99.90;;;;;;5406914;26;19936;-48
2024/04/12 02:18:04;;;;;;;;;;;14.10;99.90;;;;;;5390582;26;19941;-48
2024/04/12 02:20:36;;;;;;;;;;;14.10;99.90;;;;;;5415730;26;19929;-46
2024/04/12 02:23:05;;;;;;;;;;;14.10;99.90;;;;;;5417728;26;19936;-47
2024/04/12 02:25:35;;;;;;;;;;;14.10;99.90;;;;;;5422940;26;19929;-47
2024/04/12 02:28:07;;;;;;;;;;;14.10;99.90;;;;;;5420570;26;20650;-47
2024/04/12 02:30:45;;;;;;;;;;;14.10;99.90;;;;;;5420007;26;19937;-46
2024/04/12 02:33:12;;;;;;;;;;;14.10;99.90;;;;;;5421967;26;20355;-48
2024/04/12 02:35:43;;;;;;;;;;;14.10;99.90;;;;;;5422186;26;19998;-47
2024/04/12 02:38:15;;;;;;;;;;;14.10;99.90;;;;;;5412519;26;20270;-47
2024/04/12 02:40:42;;;;;;;;;;;14.10;99.90;;;;;;5409951;26;19937;-49
2024/04/12 02:43:15;;;;;;;;;;;14.10;99.90;;;;;;5422756;26;19941;-47
2024/04/12 02:45:53;;;;;;;;;;;14.10;99.90;;;;;;5421409;26;19929;-47
2024/04/12 02:48:22;;;;;;;;;;;14.00;99.90;;;;;;5422255;26;19929;-48
2024/04/12 02:50:54;;;;;;;;;;;14.00;99.90;;;;;;5422685;26;20002;-48
2024/04/12 02:53:20;;;;;;;;;;;14.10;99.90;;;;;;5422963;26;20364;-47
2024/04/12 02:55:47;;;;;;;;;;;14.10;99.90;;;;;;5413525;26;20260;-47
2024/04/12 02:58:13;;;;;;;;;;;14.10;99.90;;;;;;5422669;26;19933;-47
2024/04/12 03:00:39;;;;;;;;;;;14.00;99.90;;;;;;5385858;26;19999;-47
2024/04/12 03:03:05;;;;;;;;;;;14.00;99.90;;;;;;5409594;26;19929;-47
2024/04/12 03:05:32;;;;;;;;;;;14.00;99.90;;;;;;5422024;26;19933;-47
2024/04/12 03:08:00;;;;;;;;;;;14.00;99.90;;;;;;5423395;26;19936;-47
2024/04/12 03:10:27;;;;;;;;;;;14.00;99.90;;;;;;5422285;26;19933;-47
2024/04/12 03:12:52;;;;;;;;;;;14.00;99.90;;;;;;5400043;26;19933;-47
2024/04/12 03:15:21;;;;;;;;;;;14.00;99.90;;;;;;5412328;26;19929;-47
2024/04/12 03:17:47;;;;;;;;;;;14.00;99.90;;;;;;5406820;26;19929;-48
2024/04/12 03:20:15;;;;;;;;;;;14.00;99.90;;;;;;5421367;26;19928;-47
2024/04/12 03:22:44;;;;;;;;;;;14.00;99.90;;;;;;5433571;26;19933;-51
2024/04/12 03:25:10;;;;;;;;;;;14.00;99.90;;;;;;5422659;26;19941;-51
2024/04/12 03:27:38;;;;;;;;;;;14.00;99.90;;;;;;5422067;26;19998;-52
2024/04/12 03:30:13;;;;;;;;;;;14.00;99.90;;;;;;5422625;26;19929;-51
2024/04/12 03:32:45;;;;;;;;;;;14.00;99.90;;;;;;5422502;26;19936;-48
2024/04/12 03:35:12;;;;;;;;;;;14.00;99.90;;;;;;5421495;26;20275;-53
2024/04/12 03:37:38;;;;;;;;;;;14.00;99.90;;;;;;5421622;26;19929;-52
2024/04/12 03:40:15;;;;;;;;;;;14.00;99.90;;;;;;5422787;26;19961;-52
2024/04/12 03:42:41;;;;;;;;;;;14.00;99.90;;;;;;5421988;26;19936;-52
2024/04/12 03:45:12;;;;;;;;;;;14.00;99.90;;;;;;5422401;26;20372;-53
2024/04/12 03:47:44;;;;;;;;;;;14.00;99.90;;;;;;5422025;26;19929;-51
2024/04/12 03:50:16;;;;;;;;;;;13.90;99.90;;;;;;5422221;26;19936;-51
2024/04/12 03:52:44;;;;;;;;;;;14.00;99.90;;;;;;5422253;26;19929;-52
2024/04/12 03:55:10;;;;;;;;;;;14.00;99.90;;;;;;5422230;26;19935;-53
2024/04/12 03:57:38;;;;;;;;;;;14.00;99.90;;;;;;5421512;26;19929;-52
2024/04/12 04:00:10;;;;;;;;;;;14.00;99.90;;;;;;5422327;26;19998;-47
2024/04/12 04:02:37;;;;;;;;;;;14.00;99.90;;;;;;5421487;26;20002;-48
2024/04/12 04:05:14;;;;;;;;;;;14.00;99.90;;;;;;5422340;26;20803;-47
2024/04/12 04:07:41;;;;;;;;;;;14.00;99.90;;;;;;5422288;26;19936;-47
2024/04/12 04:10:13;;;;;;;;;;;13.90;99.90;;;;;;5421945;26;19937;-47
2024/04/12 04:12:45;;;;;;;;;;;13.90;99.90;;;;;;5421522;26;19929;-49
2024/04/12 04:15:14;;;;;;;;;;;13.90;99.90;;;;;;5415558;26;19930;-48
2024/04/12 04:17:40;;;;;;;;;;;14.00;99.90;;;;;;5405491;26;19963;-47
2024/04/12 04:20:06;;;;;;;;;;;13.90;99.90;;;;;;5421675;26;20511;-47
2024/04/12 04:25:00;;;;;;;;;;;13.90;99.90;;;;;;5421752;26;19998;-47
2024/04/12 04:27:25;;;;;;;;;;;13.90;99.90;;;;;;5421149;26;19941;-48
2024/04/12 04:29:52;;;;;;;;;;;13.90;99.90;;;;;;5421499;26;19933;-47
2024/04/12 04:32:21;;;;;;;;;;;13.90;99.90;;;;;;5421494;26;19940;-47
2024/04/12 04:35:05;;;;;;;;;;;13.90;99.90;;;;;;5421337;26;19980;-48
2024/04/12 04:37:31;;;;;;;;;;;13.90;99.90;;;;;;5421252;26;19941;-47
2024/04/12 04:39:58;;;;;;;;;;;13.80;99.90;;;;;;5421595;26;19937;-48
2024/04/12 04:42:24;;;;;;;;;;;13.90;99.90;;;;;;5420693;26;19928;-48
2024/04/12 04:44:49;;;;;;;;;;;13.90;99.90;;;;;;5418687;26;20261;-47
2024/04/12 04:47:15;;;;;;;;;;;13.90;99.90;;;;;;5398187;26;19929;-48
2024/04/12 04:49:42;;;;;;;;;;;13.90;99.90;;;;;;5420274;26;20330;-49
2024/04/12 04:52:08;;;;;;;;;;;13.80;99.90;;;;;;5418589;26;19929;-50
2024/04/12 04:54:36;;;;;;;;;;;13.80;99.90;;;;;;5408543;26;20287;-48
2024/04/12 04:57:02;;;;;;;;;;;13.90;99.90;;;;;;5418949;26;19936;-50
2024/04/12 04:59:32;;;;;;;;;;;13.90;99.90;;;;;;5418216;26;19929;-47
2024/04/12 05:02:00;;;;;;;;;;;13.80;99.90;;;;;;5401115;26;19929;-47
2024/04/12 05:04:31;;;;;;;;;;;13.90;99.90;;;;;;5404362;26;19962;-51
2024/04/12 05:06:58;;;;;;;;;;;13.80;99.90;;;;;;5409517;26;20253;-51
2024/04/12 05:09:27;;;;;;;;;;;13.90;99.90;;;;;;5404562;26;19937;-48
2024/04/12 05:11:53;;;;;;;;;;;13.80;99.90;;;;;;5407111;26;20329;-49
2024/04/12 05:14:54;;;;;;;;;;;13.80;99.90;;;;;;5400906;26;19957;-49
2024/04/12 05:17:10;;;;;;;;;;;13.80;99.90;;;;;;5401621;26;19929;-52
2024/04/12 05:19:40;;;;;;;;;;;13.80;99.90;;;;;;5420350;26;20425;-51
2024/04/12 05:22:11;;;;;;;;;;;13.80;99.90;;;;;;5396955;26;19940;-47
2024/04/12 05:24:39;;;;;;;;;;;13.80;99.90;;;;;;5412577;26;19929;-50
2024/04/12 05:27:05;;;;;;;;;;;13.80;99.90;;;;;;5420420;26;19935;-51
2024/04/12 05:29:31;;;;;;;;;;;13.80;99.90;;;;;;5407433;26;19930;-51
2024/04/12 05:32:00;;;;;;;;;;;13.80;99.90;;;;;;5406698;26;19977;-47
2024/04/12 05:34:26;;;;;;;;;;;13.80;99.90;;;;;;5406855;26;20307;-52
2024/04/12 05:36:59;;;;;;;;;;;13.80;99.90;;;;;;5401622;26;19941;-49
2024/04/12 05:39:25;;;;;;;;;;;13.70;99.90;;;;;;5411955;26;19933;-48
2024/04/12 05:41:53;;;;;;;;;;;13.70;99.90;;;;;;5408454;26;19933;-48
2024/04/12 05:44:19;;;;;;;;;;;13.80;99.90;;;;;;5407212;26;19935;-47
2024/04/12 05:46:45;;;;;;;;;;;13.80;99.90;;;;;;5404531;26;19940;-47
2024/04/12 05:49:20;;;;;;;;;;;13.80;99.90;;;;;;5407794;26;19934;-46
2024/04/12 05:51:47;;;;;;;;;;;13.80;99.90;;;;;;5406027;26;19936;-48
2024/04/12 05:54:15;;;;;;;;;;;13.80;99.90;;;;;;5403952;26;19936;-47
2024/04/12 05:56:44;;;;;;;;;;;13.80;99.90;;;;;;5399650;26;19940;-47
2024/04/12 05:59:13;;;;;;;;;;;13.80;99.90;;;;;;5405281;26;19940;-47
2024/04/12 06:01:46;;;;;;;;;;;13.80;99.90;;;;;;5407366;26;19936;-47
2024/04/12 06:04:18;;;;;;;;;;;13.80;99.90;;;;;;5410533;26;20814;-47
2024/04/12 06:06:44;;;;;;;;;;;13.80;99.90;;;;;;5406433;26;19962;-48
2024/04/12 06:09:19;;;;;;;;;;;13.80;99.90;;;;;;5396528;26;19941;-48
2024/04/12 06:11:51;;;;;;;;;;;13.80;99.90;;;;;;5398362;26;19929;-48
2024/04/12 06:14:21;;;;;;;;;;;13.80;99.90;;;;;;5409390;26;19940;-47
2024/04/12 06:16:47;;;;;;;;;;;13.80;99.90;;;;;;5409624;26;19930;-48
2024/04/12 06:19:14;;;;;;;;;;;13.80;99.90;;;;;;5400060;26;20012;-48
2024/04/12 06:21:45;;;;;;;;;;;13.80;99.90;;;;;;5405123;26;19929;-47
2024/04/12 06:24:15;;;;;;;;;;;13.80;99.90;;;;;;5404886;26;19945;-47
2024/04/12 06:26:47;;;;;;;;;;;13.80;99.90;;;;;;5411264;26;20283;-48
2024/04/12 06:29:16;;;;;;;;;;;13.80;99.90;;;;;;5411291;26;20329;-47
2024/04/12 06:31:45;;;;;;;;;;;13.80;99.90;;;;;;5386506;26;19930;-47
2024/04/12 06:34:16;;;;;;;;;;;13.80;99.90;;;;;;5417572;26;19941;-47
2024/04/12 06:36:45;;;;;;;;;;;13.80;99.90;;;;;;5410777;26;19934;-47
2024/04/12 06:39:11;;;;;;;;;;;13.80;99.90;;;;;;5417356;26;20042;-47
2024/04/12 06:41:37;;;;;;;;;;;13.80;99.90;;;;;;5403833;26;19938;-47
2024/04/12 06:44:03;;;;;;;;;;;13.80;99.90;;;;;;5401312;26;20391;-47
2024/04/12 06:46:31;;;;;;;;;;;13.80;99.90;;;;;;5400273;26;19933;-47
2024/04/12 06:49:07;;;;;;;;;;;13.80;99.90;;;;;;5405227;26;19939;-48
2024/04/12 06:54:27;;;;;;;;;;;13.90;99.90;;;;;;5405093;26;19936;-47
2024/04/12 06:56:52;;;;;;;;;;;13.80;99.90;;;;;;5407277;26;19936;-52
2024/04/12 06:59:18;;;;;;;;;;;13.80;99.90;;;;;;5404318;26;19933;-51
2024/04/12 07:01:47;;;;;;;;;;;13.90;99.90;;;;;;5406840;26;19941;-52
2024/04/12 07:04:13;;;;;;;;;;;13.90;99.90;;;;;;5405182;26;19945;-51
2024/04/12 07:06:38;;;;;;;;;;;13.90;99.90;;;;;;5407042;26;19929;-50
2024/04/12 07:09:08;;;;;;;;;;;13.90;99.90;;;;;;5408262;26;20039;-51
2024/04/12 07:11:39;;;;;;;;;;;13.90;99.90;;;;;;5401882;26;19930;-50
2024/04/12 07:14:05;;;;;;;;;;;14.00;99.90;;;;;;5407809;26;20079;-48
2024/04/12 07:16:35;;;;;;;;;;;14.00;99.90;;;;;;5403674;26;19929;-51
2024/04/12 07:19:09;;;;;;;;;;;14.00;99.90;;;;;;5404891;26;19979;-51
2024/04/12 07:21:37;;;;;;;;;;;14.00;99.90;;;;;;5407230;26;19937;-51
2024/04/12 07:24:03;;;;;;;;;;;14.00;99.90;;;;;;5403546;26;19929;-51
2024/04/12 07:26:29;;;;;;;;;;;14.00;99.90;;;;;;5405977;26;20382;-52
2024/04/12 07:28:59;;;;;;;;;;;14.00;99.90;;;;;;5414434;26;19954;-51
2024/04/12 07:31:25;;;;;;;;;;;14.10;99.90;;;;;;5418246;26;20293;-50
2024/04/12 07:33:51;;;;;;;;;;;14.10;99.90;;;;;;5421710;26;19937;-51
2024/04/12 07:36:17;;;;;;;;;;;14.10;99.90;;;;;;5419295;26;20036;-48
2024/04/12 07:38:42;;;;;;;;;;;14.10;99.90;;;;;;5420718;26;19939;-50
2024/04/12 07:41:10;;;;;;;;;;;14.10;99.90;;;;;;5421581;26;19929;-53
2024/04/12 07:43:42;;;;;;;;;;;14.10;99.90;;;;;;5421395;26;19936;-51
2024/04/12 07:46:14;;;;;;;;;;;14.10;99.90;;;;;;5399630;26;19933;-47
2024/04/12 07:48:41;;;;;;;;;;;14.20;99.90;;;;;;5410318;26;19998;-47
2024/04/12 07:51:07;;;;;;;;;;;14.20;99.90;;;;;;5420455;26;19929;-47
2024/04/12 07:53:35;;;;;;;;;;;14.20;99.90;;;;;;5419081;26;20379;-51
2024/04/12 07:56:08;;;;;;;;;;;14.20;99.90;;;;;;5407816;26;19971;-52
2024/04/12 07:58:34;;;;;;;;;;;14.20;99.90;;;;;;5418067;26;20439;-51
2024/04/12 08:01:09;;;;;;;;;;;14.20;99.90;;;;;;5421343;26;19929;-52
2024/04/12 08:03:36;;;;;;;;;;;14.20;99.90;;;;;;5421161;26;20406;-52
2024/04/12 08:06:05;;;;;;;;;;;14.30;99.90;;;;;;5420418;26;19936;-52
2024/04/12 08:08:31;;;;;;;;;;;14.30;99.90;;;;;;5412024;26;19929;-54
2024/04/12 08:10:58;;;;;;;;;;;14.30;99.90;;;;;;5405008;26;20264;-54
2024/04/12 08:13:28;;;;;;;;;;;14.30;99.90;;;;;;5382229;26;19930;-54
2024/04/12 08:16:00;;;;;;;;;;;14.40;99.90;;;;;;5395753;26;19935;-52
2024/04/12 08:18:28;;;;;;;;;;;14.40;99.90;;;;;;5361215;26;19934;-54
2024/04/12 08:21:01;;;;;;;;;;;14.40;99.90;;;;;;5383782;26;19956;-53
2024/04/12 08:23:29;;;;;;;;;;;14.40;99.90;;;;;;5383851;26;19937;-49
2024/04/12 08:25:58;;;;;;;;;;;14.40;99.90;;;;;;5380858;26;19957;-49
2024/04/12 08:28:24;;;;;;;;;;;14.50;99.90;;;;;;5384700;26;19937;-52
2024/04/12 08:30:53;;;;;;;;;;;14.50;99.90;;;;;;5385014;26;20262;-47
2024/04/12 08:33:24;;;;;;;;;;;14.60;99.90;;;;;;5370972;26;19937;-48
2024/04/12 08:35:55;;;;;;;;;;;14.60;99.90;;;;;;5373916;26;19941;-49
2024/04/12 08:38:24;;;;;;;;;;;14.60;99.90;;;;;;5364935;26;19929;-51
2024/04/12 08:40:55;;;;;;;;;;;14.60;99.90;;;;;;5372924;26;19934;-49
2024/04/12 08:43:41;;;;;;;;;;;14.60;99.90;;;;;;5371593;26;19934;-50
2024/04/12 08:46:14;;;;;;;;;;;14.60;99.90;;;;;;5368864;26;19941;-49
2024/04/12 08:48:41;;;;;;;;;;;14.60;99.90;;;;;;5371657;26;19953;-48
2024/04/12 08:51:09;;;;;;;;;;;14.60;99.90;;;;;;5368684;26;20285;-47
2024/04/12 08:53:44;;;;;;;;;;;14.70;99.90;;;;;;5381732;26;19929;-49
2024/04/12 08:56:17;;;;;;;;;;;14.70;99.90;;;;;;5368979;26;19930;-53
2024/04/12 08:58:48;;;;;;;;;;;14.70;99.90;;;;;;5366365;26;19944;-49
2024/04/12 09:01:15;;;;;;;;;;;14.70;99.90;;;;;;5367281;26;20025;-47
2024/04/12 09:03:43;;;;;;;;;;;14.70;99.90;;;;;;5371708;26;19940;-48
2024/04/12 09:06:14;;;;;;;;;;;14.70;99.90;;;;;;5367680;26;19929;-47
2024/04/12 09:08:41;;;;;;;;;;;14.70;99.90;;;;;;5365465;26;19930;-52
2024/04/12 09:11:07;;;;;;;;;;;14.70;99.90;;;;;;5367690;26;19957;-51
2024/04/12 09:13:34;;;;;;;;;;;14.80;99.90;;;;;;5368248;26;19950;-48
2024/04/12 09:16:03;;;;;;;;;;;14.80;99.90;;;;;;5380937;26;20407;-50
2024/04/12 09:18:37;;;;;;;;;;;14.80;99.90;;;;;;5382678;26;19936;-53
2024/04/12 09:21:05;;;;;;;;;;;14.80;99.90;;;;;;5382960;26;19940;-54
2024/04/12 09:23:36;;;;;;;;;;;14.80;99.90;;;;;;5382952;26;20273;-54
2024/04/12 09:26:21;;;;;;;;;;;14.80;99.90;;;;;;5383715;26;19937;-55
2024/04/12 09:28:47;;;;;;;;;;;14.90;99.90;;;;;;5381377;26;20260;-55
2024/04/12 09:34:22;;;;;;;;;;;14.90;99.90;;;;;;5381491;26;19948;-51
2024/04/12 09:37:01;;;;;;;;;;;14.90;99.90;;;;;;5377500;26;20123;-51
2024/04/12 09:42:15;;;;;;;;;;;14.90;99.90;;;;;;5378294;26;19965;-52
2024/04/12 09:44:48;;;;;;;;;;;14.90;99.90;;;;;;5350443;26;19945;-54
2024/04/12 10:39:45;;;;;;;;;;;15.10;99.90;;;;;;5365075;26;19941;-47
2024/04/12 10:42:12;;;;;;;;;;;15.10;99.90;;;;;;5381043;26;19929;-51
2024/04/12 10:44:37;;;;;;;;;;;15.10;99.90;;;;;;5377465;26;19936;-47
2024/04/12 10:47:04;;;;;;;;;;;15.10;99.90;;;;;;5383228;26;19933;-49
2024/04/12 10:49:30;;;;;;;;;;;15.10;99.90;;;;;;5379249;26;19940;-48
2024/04/12 10:51:56;;;;;;;;;;;15.10;99.90;;;;;;5383261;26;20290;-48
2024/04/12 10:54:23;;;;;;;;;;;15.20;99.90;;;;;;5353554;26;20062;-48
2024/04/12 10:56:49;;;;;;;;;;;15.20;99.90;;;;;;5369768;26;19930;-51
2024/04/12 10:59:26;;;;;;;;;;;15.20;99.90;;;;;;5359184;26;19942;-49
2024/04/12 11:01:56;;;;;;;;;;;15.20;99.90;;;;;;5364702;26;20298;-48
2024/04/12 11:04:22;;;;;;;;;;;15.20;99.90;;;;;;5375224;26;20443;-49
2024/04/12 11:06:50;;;;;;;;;;;15.20;99.90;;;;;;5374393;26;20250;-49
2024/04/12 11:09:17;;;;;;;;;;;15.20;99.90;;;;;;5357323;26;19937;-50
2024/04/12 11:11:43;;;;;;;;;;;15.20;99.90;;;;;;5370148;26;19944;-48
2024/04/12 11:14:17;;;;;;;;;;;15.20;99.90;;;;;;5377013;26;19937;-49
2024/04/12 11:33:31;;;;;;;;;;;15.20;99.90;;;;;;5385913;26;19936;-47
2024/04/12 11:36:01;;;;;;;;;;;15.30;99.90;;;;;;5380765;26;19930;-47
2024/04/12 11:38:27;;;;;;;;;;;15.30;99.90;;;;;;5367241;26;19942;-52
2024/04/12 11:40:57;;;;;;;;;;;15.30;99.90;;;;;;5384936;26;19929;-49
2024/04/12 11:43:23;;;;;;;;;;;15.30;99.90;;;;;;5385659;26;19936;-54
2024/04/12 11:45:49;;;;;;;;;;;15.30;99.90;;;;;;5372535;26;19934;-55
2024/04/12 11:48:14;;;;;;;;;;;15.30;99.90;;;;;;5373433;26;19929;-49
2024/04/12 11:50:41;;;;;;;;;;;15.30;99.90;;;;;;5369926;26;19975;-55
2024/04/12 11:53:10;;;;;;;;;;;15.30;99.90;;;;;;5370436;26;20266;-55
2024/04/12 11:55:39;;;;;;;;;;;15.30;99.90;;;;;;5369751;26;19980;-55
2024/04/12 11:58:06;;;;;;;;;;;15.30;99.90;;;;;;5371356;26;19929;-53
2024/04/12 12:00:32;;;;;;;;;;;15.30;99.90;;;;;;5381231;26;19930;-53
2024/04/12 12:02:57;;;;;;;;;;;15.30;99.90;;;;;;5353442;26;19930;-55
2024/04/12 12:05:23;;;;;;;;;;;15.30;99.90;;;;;;5374201;26;19930;-52
2024/04/12 12:07:48;;;;;;;;;;;15.30;99.90;;;;;;5382897;26;19976;-52
2024/04/12 12:10:14;;;;;;;;;;;15.30;99.90;;;;;;5385287;26;19937;-51
2024/04/12 12:12:41;;;;;;;;;;;15.30;99.90;;;;;;5385322;26;19929;-51
2024/04/12 12:15:08;;;;;;;;;;;15.40;99.90;;;;;;5382822;26;19936;-48
2024/04/12 12:17:34;;;;;;;;;;;15.40;99.90;;;;;;5390927;26;20006;-51
2024/04/12 12:19:59;;;;;;;;;;;15.40;99.90;;;;;;5384772;26;21338;-49
2024/04/12 12:22:25;;;;;;;;;;;15.40;99.90;;;;;;5384963;26;19929;-52
2024/04/12 12:24:51;;;;;;;;;;;15.40;99.90;;;;;;5377327;26;19930;-51
2024/04/12 12:27:19;;;;;;;;;;;15.40;99.90;;;;;;5371885;26;19929;-53
2024/04/12 12:29:48;;;;;;;;;;;15.40;99.90;;;;;;5385221;26;19956;-52
2024/04/12 12:32:14;;;;;;;;;;;15.40;99.90;;;;;;5382662;26;20404;-50
2024/04/12 12:34:43;;;;;;;;;;;15.40;99.90;;;;;;5383081;26;19942;-52
2024/04/12 12:37:09;;;;;;;;;;;15.40;99.90;;;;;;5383588;26;20282;-51
2024/04/12 12:39:37;;;;;;;;;;;15.40;99.90;;;;;;5385201;26;19933;-51
2024/04/12 12:42:05;;;;;;;;;;;15.40;99.90;;;;;;5385030;26;19937;-53
2024/04/12 12:44:31;;;;;;;;;;;15.40;99.90;;;;;;5370300;26;19941;-52
2024/04/12 12:46:59;;;;;;;;;;;15.40;99.90;;;;;;5382678;26;19933;-53
2024/04/12 12:49:25;;;;;;;;;;;15.40;99.90;;;;;;5383406;26;20371;-52
2024/04/12 12:51:53;;;;;;;;;;;15.40;99.90;;;;;;5384030;26;20272;-51
2024/04/12 12:54:19;;;;;;;;;;;15.40;99.90;;;;;;5383517;26;19940;-55
2024/04/12 12:56:45;;;;;;;;;;;15.40;99.90;;;;;;5384427;26;19930;-54
2024/04/12 12:59:11;;;;;;;;;;;15.50;99.90;;;;;;5385226;26;19937;-55
2024/04/12 13:01:36;;;;;;;;;;;15.50;99.90;;;;;;5384175;26;19936;-54
2024/04/12 13:04:07;;;;;;;;;;;15.50;99.90;;;;;;5384737;26;19937;-55
2024/04/12 13:06:34;;;;;;;;;;;15.50;99.90;;;;;;5384277;26;19934;-55
2024/04/12 13:09:00;;;;;;;;;;;15.50;99.90;;;;;;5384481;26;19936;-55
2024/04/12 13:11:26;;;;;;;;;;;15.50;99.90;;;;;;5383251;26;19938;-53
2024/04/12 13:13:52;;;;;;;;;;;15.50;99.90;;;;;;5384054;26;19961;-54
2024/04/12 13:16:17;;;;;;;;;;;15.50;99.90;;;;;;5375978;26;19930;-50
2024/04/12 13:18:45;;;;;;;;;;;15.50;99.90;;;;;;5366841;26;19934;-52
2024/04/12 13:21:11;;;;;;;;;;;15.50;99.90;;;;;;5384197;26;19929;-53
2024/04/12 13:23:37;;;;;;;;;;;15.50;99.90;;;;;;5383835;26;19929;-52
2024/04/12 13:26:06;;;;;;;;;;;15.60;99.90;;;;;;5384471;26;20369;-54
2024/04/12 13:28:38;;;;;;;;;;;15.60;99.90;;;;;;5372084;26;19930;-51
2024/04/12 13:31:05;;;;;;;;;;;15.60;99.90;;;;;;5366679;26;19944;-55
2024/04/12 13:33:30;;;;;;;;;;;15.60;99.90;;;;;;5377691;26;19930;-53
2024/04/12 13:35:59;;;;;;;;;;;15.70;99.90;;;;;;5382906;26;19958;-55
2024/04/12 13:38:25;;;;;;;;;;;15.70;99.90;;;;;;5344734;26;19930;-54
2024/04/12 13:40:54;;;;;;;;;;;15.70;99.90;;;;;;5372397;26;20246;-55
2024/04/12 13:43:24;;;;;;;;;;;15.70;99.90;;;;;;5382646;26;20258;-51
2024/04/12 13:51:19;;;;;;;;;;;15.80;99.90;;;;;;5383959;26;19937;-52
2024/04/12 13:53:45;;;;;;;;;;;15.80;99.90;;;;;;5384021;26;19941;-48
2024/04/12 13:56:21;;;;;;;;;;;15.80;99.90;;;;;;5384305;26;19930;-49
2024/04/12 13:58:48;;;;;;;;;;;15.90;99.90;;;;;;5383999;26;19930;-50
2024/04/12 14:01:23;;;;;;;;;;;15.90;99.90;;;;;;5379640;26;19950;-51
2024/04/12 14:04:09;;;;;;;;;;;15.80;99.90;;;;;;5362079;26;19929;-51
2024/04/12 14:06:36;;;;;;;;;;;15.90;99.90;;;;;;5372556;26;20003;-48
2024/04/12 14:09:09;;;;;;;;;;;15.90;99.90;;;;;;5365770;26;19930;-53
2024/04/12 14:11:41;;;;;;;;;;;15.90;99.90;;;;;;5338086;26;19968;-54
2024/04/12 14:14:07;;;;;;;;;;;15.90;99.90;;;;;;5371126;26;20264;-53
2024/04/12 14:16:33;;;;;;;;;;;15.90;99.90;;;;;;5373335;26;19930;-54
2024/04/12 14:18:59;;;;;;;;;;;15.90;99.90;;;;;;5369525;26;19937;-51
2024/04/12 14:21:26;;;;;;;;;;;15.90;99.90;;;;;;5385776;26;19934;-55
2024/04/12 14:23:51;;;;;;;;;;;15.90;99.90;;;;;;5387141;26;20318;-53
2024/04/12 14:26:17;;;;;;;;;;;15.90;99.90;;;;;;5380431;26;19944;-51
2024/04/12 14:28:43;;;;;;;;;;;15.90;99.90;;;;;;5368169;26;19966;-50
2024/04/12 14:31:08;;;;;;;;;;;15.90;99.90;;;;;;5374161;26;19930;-48
2024/04/12 14:33:34;;;;;;;;;;;15.90;99.90;;;;;;5384767;26;19941;-52
2024/04/12 14:36:00;;;;;;;;;;;15.90;99.90;;;;;;5376334;26;19946;-55
2024/04/12 14:38:26;;;;;;;;;;;15.80;99.90;;;;;;5372965;26;19973;-52
2024/04/12 14:40:52;;;;;;;;;;;15.90;99.90;;;;;;5363304;26;19936;-55
2024/04/12 14:43:18;;;;;;;;;;;15.90;99.90;;;;;;5378990;26;19934;-52
2024/04/12 14:45:47;;;;;;;;;;;15.90;99.90;;;;;;5385798;26;19930;-52
2024/04/12 14:48:13;;;;;;;;;;;15.90;99.90;;;;;;5381026;26;19953;-53
2024/04/12 14:50:39;;;;;;;;;;;15.90;99.90;;;;;;5332741;26;19936;-54
2024/04/12 14:53:05;;;;;;;;;;;15.90;99.90;;;;;;5349906;26;19930;-52
2024/04/12 14:55:30;;;;;;;;;;;15.90;99.90;;;;;;5385857;26;19935;-52
2024/04/12 14:57:57;;;;;;;;;;;15.90;99.90;;;;;;5385847;26;20373;-51
2024/04/12 15:00:23;;;;;;;;;;;15.90;99.90;;;;;;5381887;26;19938;-51
2024/04/12 15:49:08;;;;;;;;;;;16.10;99.90;;;;;;5386046;26;19976;-52
2024/04/12 15:51:34;;;;;;;;;;;16.00;99.90;;;;;;5384950;26;19933;-51
2024/04/12 15:54:00;;;;;;;;;;;16.10;99.90;;;;;;5386314;26;19940;-52
2024/04/12 16:12:33;;;;;;;;;;;16.10;99.90;;;;;;5385512;26;20256;-51
2024/04/12 16:14:59;;;;;;;;;;;16.10;99.90;;;;;;5385792;26;19929;-50
2024/04/12 16:17:24;;;;;;;;;;;16.10;99.90;;;;;;5385653;26;19936;-49
2024/04/12 16:19:52;;;;;;;;;;;16.10;99.90;;;;;;5384588;26;20515;-51
2024/04/12 16:22:18;;;;;;;;;;;16.10;99.90;;;;;;5375239;26;19929;-47
2024/04/12 16:24:44;;;;;;;;;;;16.20;99.90;;;;;;5377301;26;19936;-47
2024/04/12 16:27:09;;;;;;;;;;;16.20;99.90;;;;;;5379473;26;19933;-48
2024/04/12 16:29:38;;;;;;;;;;;16.20;99.90;;;;;;5372191;26;20023;-48
2024/04/12 16:32:03;;;;;;;;;;;16.20;99.90;;;;;;5366433;26;20265;-49
2024/04/12 16:34:29;;;;;;;;;;;16.20;99.90;;;;;;5373927;26;19936;-49
2024/04/12 16:36:55;;;;;;;;;;;16.20;99.90;;;;;;5381770;26;19929;-48
2024/04/12 16:39:20;;;;;;;;;;;16.20;99.90;;;;;;5380707;26;20003;-48
2024/04/12 16:41:58;;;;;;;;;;;16.20;99.90;;;;;;5383580;26;19961;-51
2024/04/12 16:44:25;;;;;;;;;;;16.20;99.90;;;;;;5373493;26;20241;-48
2024/04/12 16:46:51;;;;;;;;;;;16.20;99.90;;;;;;5394690;26;20264;-50
2024/04/12 16:49:16;;;;;;;;;;;16.20;99.90;;;;;;5384309;26;19973;-50
2024/04/12 16:51:42;;;;;;;;;;;16.20;99.90;;;;;;5384613;26;19930;-49